7W6 weather

Hyde County Airport
Engelhard, North Carolina, United States

Public forecast

Using degrees Fahrenheit for public forecast. Weather courtesy of forecast.io.

METAR (pilot weather report)

Retrieved 2019/04/24 21:40 UTC (0 seconds ago):

K7W6 242140Z AUTO 17006KT 10SM CLR 26/18 A2983 RMK AO2 T02550175

TAF (pilot weather forecast)

Closest forecast is Elizabeth City Regional Airport & Coast Guard Air Station, 43.3 nm (80.1 km) NNW. Retrieved 2019/04/24 18:48 UTC (3 hours ago):

TAF KECG 241743Z 2418/2518 26007KT P6SM SCT200 FM242000 16007KT P6SM SCT050 BKN100 FM250000 10006KT P6SM BKN250